createdAt,value
2022-11-29T00:25:42.609Z,5.38
2022-11-29T00:26:49.400Z,5.83
2022-11-29T00:27:51.894Z,5.47
2022-11-29T00:28:56.049Z,5.62
2022-11-29T00:29:59.553Z,5.56
2022-11-29T00:31:23.547Z,6.22
2022-11-29T00:32:26.803Z,5.51
2022-11-29T00:33:33.679Z,6.38
2022-11-29T00:34:37.913Z,6.09
2022-11-29T00:35:41.299Z,6.02
2022-11-29T00:36:46.191Z,5.73
2022-11-29T00:37:49.525Z,5.98
2022-11-29T00:38:54.381Z,6.33
2022-11-29T00:39:58.213Z,6.06
2022-11-29T00:41:03.068Z,6.13
2022-11-29T00:42:06.529Z,5.86
2022-11-29T00:43:10.076Z,6.14
2022-11-29T00:44:19.623Z,5.87
2022-11-29T00:45:21.472Z,5.76
2022-11-29T00:46:24.838Z,6.30
2022-11-29T00:47:28.686Z,5.79
2022-11-29T00:48:31.753Z,6.34
2022-11-29T00:49:36.347Z,5.96
2022-11-29T00:50:40.175Z,5.82
2022-11-29T00:51:43.346Z,6.19
2022-11-29T00:52:47.788Z,6.24
2022-11-29T00:53:51.446Z,5.98
2022-11-29T00:54:53.964Z,6.34
2022-11-29T00:55:58.047Z,6.08
2022-11-29T00:57:02.505Z,6.02
2022-11-29T00:58:07.021Z,5.89
2022-11-29T00:59:10.702Z,6.22
2022-11-29T01:00:15.403Z,6.38
2022-11-29T01:01:18.844Z,5.97
2022-11-29T01:02:22.476Z,5.77
2022-11-29T01:03:25.536Z,6.51
2022-11-29T01:04:29.998Z,6.16
2022-11-29T01:05:32.985Z,6.12
2022-11-29T01:06:36.387Z,6.27
2022-11-29T01:07:41.169Z,6.78
2022-11-29T01:08:49.614Z,6.22
2022-11-29T01:09:54.159Z,6.29
2022-11-29T01:11:08.120Z,6.13
2022-11-29T01:12:12.399Z,6.07
2022-11-29T01:13:16.038Z,5.93
2022-11-29T01:14:19.758Z,5.90
2022-11-29T01:15:23.367Z,5.68
2022-11-29T01:16:30.601Z,6.16
2022-11-29T01:17:37.611Z,6.19
2022-11-29T01:18:41.678Z,6.08
2022-11-29T01:19:50.642Z,5.38
2022-11-29T01:21:00.385Z,5.73
2022-11-29T01:22:02.813Z,5.26
2022-11-29T01:23:06.361Z,5.26
2022-11-29T01:24:08.888Z,4.91
2022-11-29T01:26:26.013Z,5.25
2022-11-29T01:27:30.223Z,5.42
2022-11-29T01:28:33.823Z,4.82
2022-11-29T01:29:38.827Z,5.19
2022-11-29T01:30:43.289Z,5.13
2022-11-29T01:31:47.438Z,4.75
2022-11-29T01:32:52.031Z,4.77
2022-11-29T01:33:58.746Z,4.88
2022-11-29T01:35:02.819Z,4.64
2022-11-29T01:36:13.599Z,4.94
2022-11-29T01:37:16.457Z,5.27
2022-11-29T01:38:21.592Z,4.91
2022-11-29T01:39:25.148Z,4.74
2022-11-29T01:40:27.774Z,4.98
2022-11-29T01:41:38.716Z,4.54
2022-11-29T01:42:42.126Z,5.32
2022-11-29T01:43:58.537Z,4.26
2022-11-29T01:45:08.647Z,4.49
2022-11-29T01:46:12.639Z,4.52
2022-11-29T01:47:19.549Z,4.79
2022-11-29T01:48:29.690Z,4.43
2022-11-29T01:49:36.742Z,4.31
2022-11-29T01:50:42.363Z,4.07
2022-11-29T01:52:01.501Z,4.60
2022-11-29T01:53:05.864Z,4.47
2022-11-29T01:54:16.792Z,4.56
2022-11-29T01:55:19.786Z,4.33
2022-11-29T01:56:25.077Z,4.34
2022-11-29T01:57:28.727Z,4.49
2022-11-29T01:58:33.423Z,4.56
2022-11-29T01:59:39.902Z,4.17
2022-11-29T02:00:42.773Z,4.56
2022-11-29T02:01:47.945Z,4.50
2022-11-29T02:03:07.577Z,4.15
2022-11-29T02:04:10.600Z,4.05
2022-11-29T02:05:17.177Z,4.39
2022-11-29T02:06:20.760Z,4.18
2022-11-29T02:07:31.446Z,4.45
2022-11-29T02:08:41.600Z,4.27
2022-11-29T02:09:45.358Z,4.13
2022-11-29T02:11:04.232Z,4.05
2022-11-29T02:12:28.835Z,4.12
2022-11-29T02:14:03.949Z,4.43
2022-11-29T02:15:17.970Z,3.78
2022-11-29T02:16:41.172Z,4.23
2022-11-29T02:18:06.294Z,4.54
2022-11-29T02:19:30.540Z,4.19
2022-11-29T02:20:53.672Z,4.69
2022-11-29T02:22:00.846Z,4.38
2022-11-29T02:23:14.008Z,4.29
2022-11-29T02:24:41.404Z,3.82
2022-11-29T02:26:00.932Z,5.21
2022-11-29T02:27:28.952Z,4.71
2022-11-29T02:28:54.422Z,4.41
2022-11-29T02:30:13.932Z,4.61
2022-11-29T02:31:57.831Z,4.47
2022-11-29T02:33:07.689Z,4.36
2022-11-29T02:36:04.381Z,4.26
2022-11-29T02:37:31.180Z,4.47
2022-11-29T02:38:55.136Z,4.24
2022-11-29T02:40:03.521Z,4.19
2022-11-29T02:41:42.219Z,4.56
2022-11-29T02:43:05.002Z,4.42
2022-11-29T02:44:21.189Z,4.79
2022-11-29T02:46:02.757Z,4.47
2022-11-29T02:47:26.390Z,4.37
2022-11-29T02:48:58.188Z,4.40
2022-11-29T02:50:15.670Z,4.60
2022-11-29T02:53:09.860Z,4.70
2022-11-29T02:54:29.086Z,4.77
2022-11-29T02:55:58.733Z,4.80
2022-11-29T02:58:29.000Z,4.66
2022-11-29T02:59:51.097Z,4.53
2022-11-29T03:02:33.257Z,4.37
2022-11-29T03:03:43.662Z,4.09
2022-11-29T03:04:51.375Z,4.43
2022-11-29T03:06:20.170Z,4.42
2022-11-29T03:07:37.065Z,4.16
2022-11-29T03:08:53.350Z,4.08
2022-11-29T03:10:03.537Z,4.28
2022-11-29T03:11:30.495Z,4.13
2022-11-29T03:12:50.083Z,4.17
2022-11-29T03:14:09.151Z,4.33
2022-11-29T03:15:31.131Z,4.44
2022-11-29T03:16:43.214Z,4.02
2022-11-29T03:18:10.093Z,4.04
2022-11-29T03:19:42.893Z,3.72
2022-11-29T03:21:10.503Z,4.14
2022-11-29T03:22:32.490Z,4.33
2022-11-29T03:23:51.858Z,3.98
2022-11-29T03:24:58.895Z,4.00
2022-11-29T03:26:08.569Z,4.64
2022-11-29T03:27:15.343Z,4.14
2022-11-29T03:28:24.653Z,4.48
2022-11-29T03:29:31.895Z,4.14
2022-11-29T03:31:59.620Z,4.26
2022-11-29T03:33:16.827Z,4.23
2022-11-29T03:34:33.815Z,4.11
2022-11-29T03:35:56.010Z,3.91
2022-11-29T03:37:35.242Z,4.51
2022-11-29T03:40:02.282Z,3.82
2022-11-29T03:41:29.672Z,3.69
2022-11-29T03:42:47.435Z,3.53
2022-11-29T03:44:07.032Z,4.28
2022-11-29T03:45:40.161Z,3.78
2022-11-29T03:46:56.697Z,3.50
2022-11-29T03:48:09.788Z,3.46
2022-11-29T03:49:34.815Z,3.58
2022-11-29T03:50:48.378Z,3.57
2022-11-29T03:52:13.170Z,3.98
2022-11-29T03:53:44.666Z,3.51
2022-11-29T03:55:11.057Z,3.72
2022-11-29T03:57:53.583Z,3.99
2022-11-29T03:59:36.102Z,3.72
2022-11-29T04:00:54.944Z,3.86
2022-11-29T04:02:21.065Z,4.02
2022-11-29T04:03:46.360Z,4.35
2022-11-29T04:05:13.386Z,4.12
2022-11-29T04:06:21.172Z,4.44
2022-11-29T04:07:44.263Z,4.26
2022-11-29T04:09:08.021Z,4.17
2022-11-29T04:10:49.685Z,4.07
2022-11-29T04:12:08.884Z,4.34
2022-11-29T04:13:40.360Z,3.92
2022-11-29T04:15:20.428Z,3.99
2022-11-29T04:16:32.458Z,4.04
2022-11-29T04:17:50.972Z,4.26
2022-11-29T04:19:29.186Z,4.03
2022-11-29T04:20:55.453Z,3.83
2022-11-29T04:22:15.399Z,3.95
2022-11-29T04:25:35.256Z,4.23
2022-11-29T04:27:00.758Z,4.47
2022-11-29T04:28:13.800Z,3.91
2022-11-29T04:29:27.555Z,4.43
2022-11-29T04:30:44.493Z,4.45
2022-11-29T04:32:02.032Z,4.19
2022-11-29T04:33:15.423Z,4.55
2022-11-29T04:34:27.587Z,4.14
2022-11-29T04:35:57.366Z,4.41
2022-11-29T04:37:28.204Z,4.51
2022-11-29T04:39:07.929Z,4.36
2022-11-29T04:40:45.283Z,4.22
2022-11-29T04:42:14.754Z,4.38
2022-11-29T04:43:53.176Z,4.42
2022-11-29T04:45:16.335Z,4.29
2022-11-29T04:48:28.291Z,4.30
2022-11-29T04:49:58.283Z,4.22
2022-11-29T04:52:38.401Z,4.51
2022-11-29T04:53:51.533Z,4.44
2022-11-29T04:55:04.714Z,3.91
2022-11-29T04:57:45.436Z,4.44
2022-11-29T04:59:02.001Z,4.57
2022-11-29T05:00:15.219Z,4.51
2022-11-29T05:01:34.495Z,4.64
2022-11-29T05:05:45.199Z,4.34
2022-11-29T05:06:57.336Z,4.11
2022-11-29T05:08:25.913Z,5.11
2022-11-29T05:09:38.574Z,4.45
2022-11-29T05:11:10.775Z,4.71
2022-11-29T05:12:47.871Z,4.83
2022-11-29T05:14:01.121Z,4.87
2022-11-29T05:15:19.367Z,5.03
2022-11-29T05:16:40.617Z,4.81
2022-11-29T05:18:58.252Z,4.63
2022-11-29T05:20:17.675Z,4.67
2022-11-29T05:21:25.052Z,5.03
2022-11-29T05:22:44.233Z,4.79
2022-11-29T05:25:47.995Z,4.93
2022-11-29T05:27:05.837Z,5.10
2022-11-29T05:28:15.360Z,5.30
2022-11-29T05:29:28.163Z,4.59
2022-11-29T05:30:35.469Z,4.76
2022-11-29T05:31:59.866Z,4.93
2022-11-29T05:33:27.316Z,5.05
2022-11-29T05:34:39.428Z,5.36
2022-11-29T05:35:55.581Z,5.32
2022-11-29T05:37:02.217Z,4.97
2022-11-29T05:38:32.361Z,5.20
2022-11-29T05:39:52.224Z,5.29
2022-11-29T05:41:20.284Z,4.81
2022-11-29T05:42:45.669Z,5.13
2022-11-29T05:43:58.757Z,4.99
2022-11-29T05:45:11.486Z,5.39
2022-11-29T05:46:23.894Z,5.66
2022-11-29T05:47:38.512Z,5.27
2022-11-29T05:50:42.802Z,5.32
2022-11-29T05:52:15.553Z,6.01
2022-11-29T05:53:38.555Z,5.27
2022-11-29T05:54:53.337Z,5.57
2022-11-29T05:56:31.830Z,5.84
2022-11-29T05:57:54.086Z,5.99
2022-11-29T05:59:01.334Z,5.63
2022-11-29T06:00:06.238Z,5.65
2022-11-29T06:01:28.229Z,5.81
2022-11-29T06:04:22.266Z,5.74
2022-11-29T06:05:36.016Z,5.82
2022-11-29T06:06:45.994Z,6.22
2022-11-29T06:08:20.751Z,6.23
2022-11-29T06:09:29.137Z,5.16
2022-11-29T06:10:40.331Z,5.84
2022-11-29T06:11:53.394Z,6.04
2022-11-29T06:13:18.854Z,5.92
2022-11-29T06:14:48.963Z,6.10
2022-11-29T06:16:08.118Z,6.41
2022-11-29T06:17:39.491Z,6.61
2022-11-29T06:19:02.336Z,6.18
2022-11-29T06:20:43.324Z,6.47
2022-11-29T06:21:57.156Z,6.40
2022-11-29T06:23:21.632Z,6.51
2022-11-29T06:24:51.028Z,6.69
2022-11-29T06:26:09.072Z,6.78
2022-11-29T06:27:23.156Z,6.88
2022-11-29T06:28:52.280Z,6.97
2022-11-29T06:30:07.364Z,6.31
2022-11-29T06:33:01.915Z,7.26
2022-11-29T06:34:11.599Z,6.61
2022-11-29T06:35:39.978Z,6.50
2022-11-29T06:37:02.310Z,7.06
2022-11-29T06:38:11.609Z,6.96
2022-11-29T06:39:14.493Z,7.11
2022-11-29T06:40:19.085Z,6.81
2022-11-29T06:41:24.518Z,7.09
2022-11-29T06:42:28.087Z,6.93
2022-11-29T06:43:34.512Z,7.26
2022-11-29T06:44:39.427Z,7.35
2022-11-29T06:45:46.635Z,7.02
2022-11-29T06:46:53.919Z,7.19
2022-11-29T06:48:00.517Z,6.91
2022-11-29T06:49:16.948Z,7.23
2022-11-29T06:50:37.027Z,7.32
2022-11-29T06:53:33.319Z,7.23
2022-11-29T06:54:58.340Z,6.73
2022-11-29T06:56:24.700Z,6.74
2022-11-29T06:57:52.608Z,6.93
2022-11-29T06:59:05.553Z,7.26
2022-11-29T07:00:31.132Z,7.33
2022-11-29T07:01:54.502Z,6.73
2022-11-29T07:03:19.201Z,7.66
2022-11-29T07:04:56.249Z,7.48
2022-11-29T07:06:01.510Z,7.33
2022-11-29T07:07:08.766Z,6.97
2022-11-29T07:08:18.539Z,7.47
2022-11-29T07:09:25.566Z,7.88
2022-11-29T07:10:31.836Z,7.39
2022-11-29T07:11:38.986Z,7.85
2022-11-29T07:12:44.937Z,8.12
2022-11-29T07:13:49.762Z,7.61
2022-11-29T07:14:54.574Z,7.47
2022-11-29T07:16:04.930Z,8.29
2022-11-29T11:04:35.536Z,6.80
2022-11-29T11:05:39.939Z,7.48
2022-11-29T11:08:29.081Z,7.30
2022-11-29T11:09:42.935Z,7.27
2022-11-29T11:10:54.510Z,7.85
2022-11-29T11:13:09.647Z,7.02
2022-11-29T11:14:32.670Z,6.94
2022-11-29T11:15:37.289Z,7.04
2022-11-29T11:16:39.921Z,7.31
2022-11-29T11:18:58.173Z,7.64
2022-11-29T11:20:05.873Z,7.84
2022-11-29T11:21:14.692Z,8.29
2022-11-29T11:22:23.715Z,7.88
2022-11-29T11:23:36.491Z,7.77
2022-11-29T11:24:44.082Z,7.70
2022-11-29T11:25:51.786Z,7.15
2022-11-29T11:26:58.327Z,7.48
2022-11-29T11:28:24.104Z,7.48
2022-11-29T11:29:34.426Z,7.16
2022-11-29T11:30:39.051Z,7.58
2022-11-29T11:31:43.545Z,7.67
2022-11-29T11:33:09.407Z,7.28
2022-11-29T11:34:26.535Z,7.51
2022-11-29T11:35:29.014Z,7.74
2022-11-29T11:36:34.411Z,7.66
2022-11-29T11:37:37.877Z,7.92
2022-11-29T11:38:51.058Z,7.94
2022-11-29T11:39:56.873Z,7.81
2022-11-29T11:41:22.822Z,7.65
2022-11-29T11:42:39.041Z,7.72
2022-11-29T11:43:42.545Z,7.91
2022-11-29T11:44:53.825Z,7.85
2022-11-29T11:45:57.855Z,8.79
2022-11-29T11:47:02.680Z,8.55
2022-11-29T11:48:12.102Z,8.68
2022-11-29T11:49:28.444Z,8.03
2022-11-29T11:50:53.150Z,7.89
2022-11-29T11:51:58.410Z,8.26
2022-11-29T12:18:46.032Z,7.29
2022-11-29T12:20:07.753Z,7.82
2022-11-29T12:21:18.856Z,7.56
2022-11-29T12:22:27.810Z,7.52
2022-11-29T12:26:55.345Z,7.53
2022-11-29T12:27:28.340Z,8.15
2022-11-29T12:28:36.873Z,7.95
2022-11-29T12:29:40.575Z,7.84
2022-11-29T12:30:56.664Z,7.87
2022-11-29T12:32:19.375Z,8.23
2022-11-29T12:33:30.943Z,8.02
2022-11-29T12:34:54.161Z,7.82
2022-11-29T12:36:04.602Z,7.91
2022-11-29T12:37:28.117Z,8.38
2022-11-29T12:38:54.686Z,8.38
2022-11-29T12:40:01.794Z,8.19
2022-11-29T12:41:29.131Z,7.58
2022-11-29T12:42:48.884Z,7.34
2022-11-29T12:44:12.068Z,8.14
2022-11-29T12:45:42.760Z,7.51
2022-11-29T12:48:29.952Z,8.65
2022-11-29T12:49:38.527Z,9.37
2022-11-29T12:50:58.685Z,8.62
2022-11-29T12:53:47.800Z,8.69
2022-11-29T12:55:07.028Z,8.56
2022-11-29T12:56:28.194Z,9.04
2022-11-29T12:58:05.503Z,9.07
2022-11-29T12:59:34.435Z,8.59
2022-11-29T13:00:44.740Z,8.61
2022-11-29T13:02:24.672Z,8.03
2022-11-29T13:03:42.710Z,8.03
2022-11-29T13:06:14.449Z,7.87
2022-11-29T13:07:36.505Z,7.57
2022-11-29T13:08:53.018Z,7.99
2022-11-29T13:10:18.873Z,8.13
2022-11-29T13:11:33.033Z,7.56
2022-11-29T13:12:41.528Z,7.73
2022-11-29T13:13:51.550Z,8.29
2022-11-29T13:15:04.541Z,8.72
2022-11-29T13:18:40.873Z,8.37
2022-11-29T13:19:48.216Z,7.41
2022-11-29T13:20:56.666Z,7.71
2022-11-29T13:22:15.678Z,8.17
2022-11-29T13:24:10.027Z,7.62
2022-11-29T13:25:04.144Z,7.38
2022-11-29T13:26:11.298Z,7.79
2022-11-29T13:27:18.460Z,8.06
2022-11-29T13:28:28.958Z,7.66
2022-11-29T13:29:32.736Z,8.74
2022-11-29T13:30:39.569Z,8.70
2022-11-29T13:31:43.857Z,7.63
2022-11-29T13:33:00.243Z,7.46
2022-11-29T13:34:09.745Z,8.44
2022-11-29T13:35:35.001Z,7.68
2022-11-29T13:36:47.725Z,7.28
2022-11-29T13:37:57.374Z,7.47
2022-11-29T13:39:10.368Z,7.17
2022-11-29T13:40:46.072Z,7.83
2022-11-29T13:41:57.676Z,7.39
2022-11-29T13:43:13.097Z,7.08
2022-11-29T13:44:23.222Z,6.98
2022-11-29T13:45:40.386Z,6.80
2022-11-29T13:47:14.854Z,6.94
2022-11-29T13:48:50.408Z,6.94
2022-11-29T13:50:04.750Z,6.11
2022-11-29T13:51:29.703Z,6.57
2022-11-29T13:52:47.971Z,6.88
2022-11-29T13:53:52.525Z,6.22
2022-11-29T13:55:15.601Z,7.13
2022-11-29T13:56:31.392Z,7.71
2022-11-29T13:58:16.324Z,7.42
2022-11-29T13:59:11.763Z,7.78
2022-11-29T14:00:31.524Z,7.79
2022-11-29T14:01:51.610Z,7.19
2022-11-29T14:02:57.555Z,7.15
2022-11-29T14:04:06.378Z,6.93
2022-11-29T14:05:13.523Z,7.10
2022-11-29T14:06:21.367Z,6.62
2022-11-29T14:07:25.183Z,7.09
2022-11-29T14:09:01.990Z,6.66
2022-11-29T14:09:59.621Z,6.92
2022-11-29T14:11:14.300Z,5.97
2022-11-29T14:12:32.874Z,6.37
2022-11-29T14:13:45.527Z,6.54
2022-11-29T14:14:54.382Z,6.48
2022-11-29T14:16:01.505Z,6.72
2022-11-29T14:17:09.322Z,6.71
2022-11-29T14:18:38.977Z,7.16
2022-11-29T14:19:43.097Z,6.93
2022-11-29T14:20:49.391Z,6.47
2022-11-29T14:22:07.110Z,6.30
2022-11-29T14:23:20.513Z,6.17
2022-11-29T14:24:39.006Z,7.21
2022-11-29T14:25:57.986Z,7.08
2022-11-29T14:27:12.737Z,7.37
2022-11-29T14:28:21.175Z,6.96
2022-11-29T14:30:59.088Z,7.23
2022-11-29T14:32:04.081Z,7.93
2022-11-29T14:33:28.126Z,7.83
2022-11-29T14:34:35.218Z,7.18
2022-11-29T14:35:42.478Z,7.57
2022-11-29T14:36:52.776Z,7.89
2022-11-29T14:38:14.667Z,7.05
2022-11-29T14:39:35.299Z,7.44
2022-11-29T14:40:45.438Z,7.56
2022-11-29T14:42:12.425Z,8.02
2022-11-29T14:43:29.527Z,7.43
2022-11-29T14:44:36.686Z,7.79
2022-11-29T14:45:40.697Z,7.77
2022-11-29T14:46:45.500Z,7.72
2022-11-29T14:47:50.457Z,7.47
2022-11-29T14:49:01.859Z,7.37
2022-11-29T14:50:10.974Z,7.93
2022-11-29T14:51:20.953Z,7.63
2022-11-29T14:52:30.823Z,7.33
2022-11-29T14:53:37.325Z,7.07
2022-11-29T14:55:04.166Z,7.49
2022-11-29T14:56:38.545Z,6.99
2022-11-29T14:57:58.348Z,7.67
2022-11-29T14:59:39.254Z,7.26
2022-11-29T15:00:51.734Z,7.13
2022-11-29T15:01:57.362Z,6.77
2022-11-29T15:03:21.482Z,7.21
2022-11-29T15:04:27.532Z,7.46
2022-11-29T15:05:40.893Z,7.77
2022-11-29T15:06:51.621Z,8.23
2022-11-29T15:08:02.813Z,7.33
2022-11-29T15:09:22.976Z,7.96
2022-11-29T15:10:31.427Z,7.87
2022-11-29T15:11:58.776Z,8.20
2022-11-29T15:13:03.648Z,7.59
2022-11-29T15:14:28.594Z,7.65
2022-11-29T15:15:42.621Z,8.29
2022-11-29T15:17:06.482Z,7.63
2022-11-29T15:18:25.166Z,7.33
2022-11-29T15:19:43.749Z,7.13
2022-11-29T15:21:09.399Z,7.00
2022-11-29T15:22:31.212Z,7.72
2022-11-29T15:25:01.476Z,7.30
2022-11-29T15:27:13.115Z,6.95
2022-11-29T15:28:28.377Z,7.24
2022-11-29T15:29:34.196Z,7.07
2022-11-29T15:30:40.704Z,7.28
2022-11-29T15:31:49.395Z,7.46
2022-11-29T15:32:54.733Z,7.47
2022-11-29T15:33:59.212Z,7.28
2022-11-29T15:35:06.384Z,7.93
2022-11-29T15:37:37.719Z,8.07
2022-11-29T15:38:47.916Z,7.99
2022-11-29T15:40:22.546Z,8.12
2022-11-29T15:41:31.961Z,7.81
2022-11-29T15:42:57.448Z,8.04
2022-11-29T15:44:05.133Z,7.44
2022-11-29T15:45:26.088Z,7.76
2022-11-29T15:47:34.366Z,7.06
2022-11-29T15:48:38.846Z,7.51
2022-11-29T15:49:41.480Z,7.90
2022-11-29T15:50:50.496Z,7.21
2022-11-29T15:51:58.615Z,7.47
2022-11-29T15:53:06.249Z,7.82
2022-11-29T15:54:14.541Z,7.58
2022-11-29T15:55:19.264Z,7.94
2022-11-29T15:56:48.845Z,7.80
2022-11-29T15:57:56.682Z,7.58
2022-11-29T15:59:05.984Z,7.23
2022-11-29T16:00:13.597Z,7.83
2022-11-29T16:01:22.084Z,7.91
2022-11-29T16:02:30.459Z,7.68
2022-11-29T16:03:37.763Z,7.93
2022-11-29T16:04:47.020Z,8.08
2022-11-29T16:05:56.629Z,8.38
2022-11-29T16:07:00.822Z,7.46
